createdAt,value
2023-04-10T00:02:26.827Z,29.15
2023-04-10T00:04:58.489Z,25.58
2023-04-10T00:07:26.540Z,28.42
2023-04-10T00:09:54.384Z,29.10
2023-04-10T00:12:22.185Z,26.92
2023-04-10T00:14:49.850Z,28.10
2023-04-10T00:17:17.686Z,27.98
2023-04-10T00:19:45.434Z,27.65
2023-04-10T00:22:14.573Z,28.27
2023-04-10T00:24:42.306Z,30.13
2023-04-10T00:27:09.990Z,29.52
2023-04-10T00:29:37.987Z,29.95
2023-04-10T00:32:05.939Z,29.50
2023-04-10T00:34:33.677Z,29.90
2023-04-10T00:37:01.312Z,32.13
2023-04-10T00:39:30.422Z,28.90
2023-04-10T00:41:58.556Z,29.25
2023-04-10T00:44:26.329Z,28.67
2023-04-10T00:46:54.035Z,33.60
2023-04-10T00:49:22.640Z,27.20
2023-04-10T00:51:50.379Z,30.73
2023-04-10T00:54:18.848Z,32.33
2023-04-10T00:56:48.005Z,32.25
2023-04-10T00:59:15.850Z,28.40
2023-04-10T01:01:44.175Z,31.20
2023-04-10T01:04:13.153Z,30.25
2023-04-10T01:06:56.576Z,31.83
2023-04-10T01:09:36.284Z,29.40
2023-04-10T01:12:29.682Z,30.27
2023-04-10T01:15:07.865Z,27.88
2023-04-10T01:17:41.830Z,31.52
2023-04-10T01:20:13.256Z,29.42
2023-04-10T01:22:53.091Z,28.17
2023-04-10T01:25:35.929Z,28.35
2023-04-10T01:28:17.168Z,29.70
2023-04-10T01:30:48.373Z,30.65
2023-04-10T01:33:20.496Z,28.63
2023-04-10T01:35:53.399Z,29.70
2023-04-10T01:38:25.470Z,28.73
2023-04-10T01:40:54.904Z,29.35
2023-04-10T01:43:26.342Z,27.02
2023-04-10T01:45:55.405Z,31.10
2023-04-10T01:48:23.605Z,31.13
2023-04-10T01:50:52.264Z,30.65
2023-04-10T01:53:21.243Z,29.67
2023-04-10T01:55:49.424Z,29.40
2023-04-10T01:58:17.591Z,31.48
2023-04-10T02:00:45.432Z,29.75
2023-04-10T02:03:14.577Z,29.80
2023-04-10T02:05:51.519Z,28.95
2023-04-10T02:08:25.733Z,29.70
2023-04-10T02:10:57.181Z,27.25
2023-04-10T02:13:29.572Z,27.15
2023-04-10T02:16:04.115Z,27.50
2023-04-10T02:18:35.649Z,29.45
2023-04-10T02:21:03.896Z,28.77
2023-04-10T02:23:31.521Z,27.35
2023-04-10T02:25:59.461Z,31.17
2023-04-10T02:28:27.132Z,28.23
2023-04-10T02:30:54.765Z,25.70
2023-04-10T02:33:22.371Z,26.15
2023-04-10T02:35:51.423Z,27.17
2023-04-10T02:38:19.141Z,25.90
2023-04-10T02:40:47.116Z,28.10
2023-04-10T02:43:15.020Z,25.85
2023-04-10T02:45:42.712Z,25.73
2023-04-10T02:48:10.931Z,25.33
2023-04-10T02:50:38.549Z,24.70
2023-04-10T02:53:07.524Z,23.85
2023-04-10T02:55:35.174Z,24.73
2023-04-10T02:58:02.896Z,24.77
2023-04-10T03:00:31.092Z,22.55
2023-04-10T03:02:58.956Z,23.17
2023-04-10T03:05:27.088Z,22.15
2023-04-10T03:07:54.946Z,23.45
2023-04-10T03:10:24.623Z,22.38
2023-04-10T03:12:52.364Z,24.23
2023-04-10T03:15:20.045Z,22.92
2023-04-10T03:17:47.838Z,23.75
2023-04-10T03:20:16.430Z,21.67
2023-04-10T03:22:44.119Z,21.88
2023-04-10T03:25:12.094Z,22.85
2023-04-10T03:27:41.177Z,21.42
2023-04-10T03:30:10.207Z,24.58
2023-04-10T03:32:38.980Z,22.73
2023-04-10T03:35:07.594Z,24.08
2023-04-10T03:37:35.376Z,22.52
2023-04-10T03:40:06.553Z,21.92
2023-04-10T03:42:34.544Z,21.75
2023-04-10T03:45:04.683Z,22.30
2023-04-10T03:47:32.822Z,23.17
2023-04-10T03:50:00.721Z,22.48
2023-04-10T03:52:28.656Z,22.75
2023-04-10T03:54:56.618Z,22.63
2023-04-10T03:57:24.337Z,23.30
2023-04-10T03:59:52.457Z,22.63
2023-04-10T04:02:21.635Z,22.98
2023-04-10T04:04:49.604Z,23.25
2023-04-10T04:07:17.234Z,24.23
2023-04-10T04:09:45.085Z,23.67
2023-04-10T04:12:12.713Z,23.02
2023-04-10T04:14:40.622Z,23.38
2023-04-10T04:17:08.277Z,25.58
2023-04-10T04:19:37.261Z,24.70
2023-04-10T04:22:05.041Z,22.15
2023-04-10T04:24:32.642Z,21.23
2023-04-10T04:27:01.154Z,21.33
2023-04-10T04:29:28.913Z,24.13
2023-04-10T04:31:56.582Z,21.70
2023-04-10T04:34:24.158Z,22.30
2023-04-10T04:36:53.139Z,23.73
2023-04-10T04:39:22.562Z,21.88
2023-04-10T04:41:50.553Z,21.10
2023-04-10T04:44:19.495Z,22.08
2023-04-10T04:46:47.150Z,20.13
2023-04-10T04:49:15.918Z,20.75
2023-04-10T04:51:43.597Z,20.13
2023-04-10T04:54:12.633Z,21.92
2023-04-10T04:56:40.583Z,21.02
2023-04-10T04:59:08.321Z,21.27
2023-04-10T05:01:36.072Z,20.02
2023-04-10T05:04:06.861Z,18.98
2023-04-10T05:06:34.793Z,21.30
2023-04-10T05:09:02.530Z,21.13
2023-04-10T05:11:31.461Z,20.23
2023-04-10T05:13:59.107Z,18.92
2023-04-10T05:16:27.337Z,19.63
2023-04-10T05:18:55.982Z,21.20
2023-04-10T05:21:23.761Z,21.02
2023-04-10T05:23:54.054Z,20.63
2023-04-10T05:26:22.531Z,20.13
2023-04-10T05:28:54.066Z,21.50
2023-04-10T05:31:21.823Z,18.85
2023-04-10T05:33:49.486Z,21.10
2023-04-10T05:36:18.157Z,21.60
2023-04-10T05:38:45.857Z,19.85
2023-04-10T05:41:13.600Z,20.50
2023-04-10T05:43:41.320Z,21.25
2023-04-10T05:46:11.568Z,18.40
2023-04-10T05:48:39.852Z,19.73
2023-04-10T05:51:08.586Z,18.55
2023-04-10T05:53:37.332Z,19.02
2023-04-10T05:56:05.492Z,18.17
2023-04-10T05:58:33.562Z,16.75
2023-04-10T06:01:01.396Z,19.23
2023-04-10T06:03:31.681Z,18.15
2023-04-10T06:06:02.289Z,19.65
2023-04-10T06:08:29.984Z,20.13
2023-04-10T06:10:57.813Z,18.02
2023-04-10T06:13:27.337Z,19.10
2023-04-10T06:15:55.011Z,20.23
2023-04-10T06:18:22.678Z,18.27
2023-04-10T06:20:52.970Z,17.77
2023-04-10T06:23:21.091Z,20.38
2023-04-10T06:25:48.733Z,17.17
2023-04-10T06:28:16.935Z,20.92
2023-04-10T06:30:44.583Z,17.63
2023-04-10T06:33:12.289Z,17.35
2023-04-10T06:35:39.944Z,17.35
2023-04-10T06:38:09.255Z,17.85
2023-04-10T06:40:36.984Z,19.10
2023-04-10T06:43:04.656Z,13.23
2023-04-10T06:45:32.466Z,14.13
2023-04-10T06:48:00.242Z,15.02
2023-04-10T06:50:28.033Z,16.55
2023-04-10T06:52:59.696Z,13.07
2023-04-10T06:55:30.572Z,13.38
2023-04-10T06:57:58.265Z,14.32
2023-04-10T07:00:26.053Z,14.05
2023-04-10T07:02:54.141Z,12.25
2023-04-10T07:05:22.241Z,15.07
2023-04-10T07:07:50.644Z,13.95
2023-04-10T07:10:18.338Z,14.48
2023-04-10T07:12:47.365Z,14.32
2023-04-10T07:15:17.004Z,11.63
2023-04-10T07:17:45.058Z,11.38
2023-04-10T07:20:13.230Z,15.07
2023-04-10T07:22:41.058Z,14.75
2023-04-10T07:25:09.828Z,16.05
2023-04-10T07:27:37.635Z,12.93
2023-04-10T07:30:08.044Z,9.63
2023-04-10T07:32:37.480Z,14.02
2023-04-10T07:35:06.140Z,12.38
2023-04-10T07:37:33.763Z,12.25
2023-04-10T07:40:02.549Z,11.07
2023-04-10T07:42:31.275Z,11.00
2023-04-10T07:44:59.044Z,11.45
2023-04-10T07:47:28.473Z,10.27
2023-04-10T07:49:56.391Z,10.23
2023-04-10T07:52:24.129Z,10.80
2023-04-10T07:54:52.206Z,12.13
2023-04-10T07:57:19.874Z,11.65
2023-04-10T07:59:47.596Z,12.55
2023-04-10T08:02:15.453Z,11.57
2023-04-10T08:04:44.593Z,10.52
2023-04-10T08:07:12.711Z,10.10
2023-04-10T08:09:40.780Z,9.48
2023-04-10T08:12:08.410Z,11.30
2023-04-10T08:14:36.033Z,8.65
2023-04-10T08:17:03.767Z,10.75
2023-04-10T08:19:31.561Z,10.13
2023-04-10T08:22:00.598Z,10.90
2023-04-10T08:24:28.551Z,10.65
2023-04-10T08:26:56.628Z,8.93
2023-04-10T08:29:25.199Z,11.85
2023-04-10T08:31:54.602Z,11.95
2023-04-10T08:34:24.415Z,9.52
2023-04-10T08:36:56.023Z,10.70
2023-04-10T08:39:26.148Z,11.10
2023-04-10T08:41:55.275Z,9.95
2023-04-10T08:44:22.990Z,9.70
2023-04-10T08:46:53.491Z,9.27
2023-04-10T08:49:29.780Z,7.35
2023-04-10T08:51:59.074Z,9.80
2023-04-10T08:54:30.300Z,6.78
2023-04-10T08:57:01.877Z,8.63
2023-04-10T08:59:30.823Z,7.78
2023-04-10T09:01:59.799Z,9.88
2023-04-10T09:04:32.312Z,10.43
2023-04-10T09:07:01.200Z,10.73
2023-04-10T09:09:36.610Z,9.43
2023-04-10T09:12:08.690Z,8.55
2023-04-10T09:14:41.179Z,10.40
2023-04-10T09:17:19.280Z,9.65
2023-04-10T09:19:49.349Z,9.43
2023-04-10T09:22:17.763Z,9.95
2023-04-10T09:24:48.131Z,10.13
2023-04-10T09:27:32.383Z,7.93
2023-04-10T09:30:00.680Z,6.68
2023-04-10T09:32:41.190Z,8.57
2023-04-10T09:35:12.911Z,11.23
2023-04-10T09:37:42.791Z,10.93
2023-04-10T09:40:26.588Z,10.63
2023-04-10T09:42:56.892Z,11.20
2023-04-10T09:45:29.080Z,10.48
2023-04-10T09:48:07.380Z,8.88
2023-04-10T09:50:39.761Z,8.80
2023-04-10T09:53:19.507Z,6.32
2023-04-10T09:55:50.070Z,7.22
2023-04-10T09:58:19.337Z,7.78
2023-04-10T10:00:49.973Z,8.07
2023-04-10T10:03:19.869Z,9.82
2023-04-10T10:05:51.745Z,6.60
2023-04-10T10:08:21.725Z,8.05
2023-04-10T10:10:55.230Z,7.72
2023-04-10T10:13:28.947Z,6.45
2023-04-10T10:16:06.016Z,7.22
2023-04-10T10:18:47.007Z,8.52
2023-04-10T10:21:15.936Z,5.88
2023-04-10T10:23:44.187Z,6.82
2023-04-10T10:26:14.416Z,7.63
2023-04-10T10:28:42.789Z,8.25
2023-04-10T10:31:11.880Z,8.15
2023-04-10T10:33:43.781Z,6.40
2023-04-10T10:36:13.927Z,6.40
2023-04-10T10:38:45.440Z,8.10
2023-04-10T10:41:27.629Z,5.28
2023-04-10T10:44:03.084Z,4.18
2023-04-10T10:46:36.719Z,4.63
2023-04-10T10:49:04.865Z,5.18
2023-04-10T10:51:44.860Z,5.72
2023-04-10T10:54:32.318Z,4.75
2023-04-10T10:57:02.256Z,6.65
2023-04-10T10:59:57.580Z,6.57
2023-04-10T11:02:25.692Z,7.35
2023-04-10T11:04:53.583Z,4.95
2023-04-10T11:07:21.689Z,7.22
2023-04-10T11:09:52.406Z,6.57
2023-04-10T11:12:23.529Z,8.63
2023-04-10T11:14:59.247Z,5.03
2023-04-10T11:17:48.524Z,6.55
2023-04-10T11:20:16.780Z,6.70
2023-04-10T11:23:11.199Z,6.70
2023-04-10T11:25:50.315Z,6.32
2023-04-10T11:28:36.645Z,7.45
2023-04-10T11:31:19.507Z,6.60
2023-04-10T11:33:47.804Z,6.03
2023-04-10T11:36:17.646Z,6.03
2023-04-10T11:38:56.361Z,6.85
2023-04-10T11:41:28.379Z,6.55
2023-04-10T11:43:57.687Z,6.63
2023-04-10T11:46:25.610Z,5.78
2023-04-10T11:48:54.749Z,5.97
2023-04-10T11:51:23.190Z,6.75
2023-04-10T11:53:51.107Z,5.47
2023-04-10T11:56:21.108Z,6.35
2023-04-10T11:58:50.947Z,7.13
2023-04-10T12:01:22.516Z,5.38
2023-04-10T12:03:50.709Z,6.20
2023-04-10T12:06:20.600Z,5.20
2023-04-10T12:08:51.265Z,5.53
2023-04-10T12:11:21.169Z,7.15
2023-04-10T12:13:49.310Z,5.90
2023-04-10T12:16:17.170Z,5.75
2023-04-10T12:18:46.813Z,5.03
2023-04-10T12:21:14.725Z,3.72
2023-04-10T12:23:43.430Z,4.95
2023-04-10T12:26:13.851Z,4.07
2023-04-10T12:28:50.346Z,3.72
2023-04-10T12:31:18.440Z,5.28
2023-04-10T12:33:47.843Z,5.55
2023-04-10T12:36:27.055Z,5.82
2023-04-10T12:38:54.915Z,5.40
2023-04-10T12:41:24.286Z,5.47
2023-04-10T12:43:53.646Z,4.80
2023-04-10T12:46:26.348Z,5.45
2023-04-10T12:48:56.463Z,5.03
2023-04-10T12:51:45.679Z,4.53
2023-04-10T12:54:27.566Z,5.00
2023-04-10T12:56:55.932Z,4.72
2023-04-10T12:59:23.770Z,4.88
2023-04-10T13:01:52.764Z,5.15
2023-04-10T13:04:22.144Z,5.20
2023-04-10T13:06:53.185Z,3.63
2023-04-10T13:09:21.122Z,5.57
2023-04-10T13:11:50.366Z,3.33
2023-04-10T13:14:20.015Z,5.18
2023-04-10T13:16:47.859Z,4.78
2023-04-10T13:19:15.642Z,5.68
2023-04-10T13:21:47.773Z,4.53
2023-04-10T13:24:17.647Z,4.00
2023-04-10T13:26:45.495Z,5.30
2023-04-10T13:29:13.325Z,4.63
2023-04-10T13:31:41.080Z,3.83
2023-04-10T13:34:08.795Z,4.60
2023-04-10T13:36:36.584Z,3.58
2023-04-10T13:39:05.878Z,3.97
2023-04-10T13:41:33.788Z,4.40
2023-04-10T13:44:01.417Z,4.45
2023-04-10T13:46:29.171Z,5.20
2023-04-10T13:48:57.585Z,3.08
2023-04-10T13:51:25.798Z,4.93
2023-04-10T13:53:53.438Z,3.10
2023-04-10T13:56:23.932Z,4.20
2023-04-10T13:58:51.601Z,3.78
2023-04-10T14:01:19.347Z,4.63
2023-04-10T14:03:47.487Z,4.68
2023-04-10T14:06:15.344Z,5.13
2023-04-10T14:08:42.989Z,5.15
2023-04-10T14:11:10.681Z,4.40
2023-04-10T14:13:39.702Z,4.95
2023-04-10T14:16:08.251Z,5.53
2023-04-10T14:18:37.826Z,5.03
2023-04-10T14:21:05.768Z,5.70
2023-04-10T14:23:33.456Z,4.72
2023-04-10T14:26:01.321Z,4.78
2023-04-10T14:28:29.220Z,4.13
2023-04-10T14:30:58.420Z,4.00
2023-04-10T14:33:26.262Z,3.97
2023-04-10T14:35:54.274Z,3.75
2023-04-10T14:38:22.056Z,2.80
2023-04-10T14:40:50.612Z,5.50
2023-04-10T14:43:19.435Z,4.35
2023-04-10T14:45:47.324Z,3.33
2023-04-10T14:48:16.782Z,2.97
2023-04-10T14:50:44.619Z,3.80
2023-04-10T14:53:12.609Z,3.30
2023-04-10T14:55:41.811Z,3.40
2023-04-10T14:58:11.072Z,3.90
2023-04-10T15:00:38.765Z,3.00
2023-04-10T15:03:08.520Z,3.22
2023-04-10T15:05:38.072Z,2.72
2023-04-10T15:08:06.248Z,4.00
2023-04-10T15:10:34.006Z,4.63
2023-04-10T15:13:01.765Z,5.63
2023-04-10T15:15:30.765Z,6.85
2023-04-10T15:17:58.904Z,5.25
2023-04-10T15:20:28.196Z,3.85
2023-04-10T15:22:58.682Z,3.92
2023-04-10T15:25:26.496Z,3.65
2023-04-10T15:27:56.172Z,2.75
2023-04-10T15:30:24.320Z,2.97
2023-04-10T15:32:52.689Z,3.83
2023-04-10T15:35:21.026Z,3.13
2023-04-10T15:37:48.890Z,3.10
2023-04-10T15:40:18.122Z,3.78
2023-04-10T15:42:46.801Z,3.15
2023-04-10T15:45:16.272Z,3.40
2023-04-10T15:47:49.646Z,3.00
2023-04-10T15:50:19.802Z,2.95
2023-04-10T15:52:47.609Z,2.97
2023-04-10T15:55:23.156Z,1.70
2023-04-10T15:57:53.032Z,2.70
2023-04-10T16:00:23.420Z,2.95
2023-04-10T16:02:51.700Z,2.90
2023-04-10T16:05:19.871Z,2.55
2023-04-10T16:07:51.399Z,2.88
2023-04-10T16:10:21.255Z,3.63
2023-04-10T16:12:50.772Z,3.03
2023-04-10T16:15:23.218Z,3.03
2023-04-10T16:17:54.382Z,3.35
2023-04-10T16:20:23.478Z,2.70
2023-04-10T16:22:53.516Z,3.13
2023-04-10T16:25:22.570Z,2.65
2023-04-10T16:27:52.920Z,2.95
2023-04-10T16:30:22.712Z,2.50
2023-04-10T16:32:50.455Z,2.67
2023-04-10T16:35:19.200Z,2.75
2023-04-10T16:37:47.590Z,3.72
2023-04-10T16:40:16.778Z,3.13
2023-04-10T16:42:44.537Z,2.47
2023-04-10T16:45:13.066Z,2.88
2023-04-10T16:47:44.783Z,3.22
2023-04-10T16:50:13.642Z,2.15
2023-04-10T16:52:41.614Z,3.45
2023-04-10T16:55:11.249Z,3.10
2023-04-10T16:57:45.246Z,3.45
2023-04-10T17:00:13.761Z,3.30
2023-04-10T17:02:43.218Z,3.92
2023-04-10T17:05:13.430Z,2.55
2023-04-10T17:07:42.988Z,2.53
2023-04-10T17:10:13.822Z,3.75
2023-04-10T17:12:42.428Z,3.42
2023-04-10T17:15:12.445Z,3.08
2023-04-10T17:17:40.758Z,3.10
2023-04-10T17:20:11.294Z,2.92
2023-04-10T17:22:40.606Z,2.58
2023-04-10T17:25:09.510Z,2.58
2023-04-10T17:27:40.308Z,3.08
2023-04-10T17:30:12.521Z,2.83
2023-04-10T17:32:42.842Z,2.78
2023-04-10T17:35:11.989Z,3.50
2023-04-10T17:37:43.940Z,3.25
2023-04-10T17:40:12.914Z,3.20
2023-04-10T17:42:41.151Z,3.45
2023-04-10T17:45:09.688Z,2.83
2023-04-10T17:47:40.849Z,2.90
2023-04-10T17:50:13.304Z,4.47
2023-04-10T17:52:41.114Z,3.13
2023-04-10T17:55:12.114Z,3.80
2023-04-10T17:57:39.899Z,3.50
2023-04-10T18:00:15.700Z,3.28
2023-04-10T18:02:44.156Z,3.35
2023-04-10T18:05:13.815Z,3.10
2023-04-10T18:07:42.998Z,3.33
2023-04-10T18:10:11.612Z,4.25
2023-04-10T18:12:39.440Z,3.72
2023-04-10T18:15:09.212Z,2.58
2023-04-10T18:17:39.881Z,3.53
2023-04-10T18:20:08.320Z,3.53
2023-04-10T18:22:37.354Z,7.35
2023-04-10T18:25:05.719Z,3.97
2023-04-10T18:27:36.016Z,3.25
2023-04-10T18:30:04.024Z,3.05
2023-04-10T18:32:31.993Z,3.05
2023-04-10T18:35:00.146Z,3.72
2023-04-10T18:37:29.139Z,2.95
2023-04-10T18:40:03.408Z,3.63
2023-04-10T18:42:34.138Z,3.40
2023-04-10T18:45:04.519Z,4.38
2023-04-10T18:47:34.167Z,3.50
2023-04-10T18:50:01.982Z,2.83
2023-04-10T18:52:30.214Z,3.75
2023-04-10T18:54:59.252Z,3.33
2023-04-10T18:57:27.265Z,2.88
2023-04-10T18:59:56.731Z,2.75
2023-04-10T19:02:25.108Z,3.45
2023-04-10T19:04:54.391Z,2.83
2023-04-10T19:07:22.247Z,3.22
2023-04-10T19:09:50.011Z,3.08
2023-04-10T19:12:19.114Z,3.08
2023-04-10T19:14:49.539Z,3.05
2023-04-10T19:17:21.771Z,2.47
2023-04-10T19:19:49.787Z,2.50
2023-04-10T19:22:17.957Z,3.35
2023-04-10T19:24:47.560Z,2.80
2023-04-10T19:27:15.942Z,2.25
2023-04-10T19:29:45.555Z,2.88
2023-04-10T19:32:13.349Z,2.78
2023-04-10T19:34:41.077Z,2.78
2023-04-10T19:37:10.178Z,3.20
2023-04-10T19:39:38.028Z,2.47
2023-04-10T19:42:05.844Z,2.70
2023-04-10T19:44:36.865Z,2.92
2023-04-10T19:47:05.952Z,2.92
2023-04-10T19:49:34.227Z,4.18
2023-04-10T19:52:02.337Z,4.50
2023-04-10T19:54:30.551Z,3.78
2023-04-10T19:56:58.610Z,2.65
2023-04-10T19:59:26.539Z,2.90
2023-04-10T20:01:57.723Z,2.65
2023-04-10T20:07:09.995Z,2.47
2023-04-10T20:09:38.164Z,2.75
2023-04-10T20:12:09.250Z,2.30
2023-04-10T20:14:38.398Z,2.70
2023-04-10T20:17:06.580Z,2.92
2023-04-10T20:19:35.982Z,2.38
2023-04-10T20:22:10.289Z,2.97
2023-04-10T20:24:38.806Z,3.38
2023-04-10T20:27:06.663Z,3.00
2023-04-10T20:29:34.524Z,4.25
2023-04-10T20:32:02.332Z,4.22
2023-04-10T20:34:30.078Z,3.10
2023-04-10T20:36:59.286Z,2.60
2023-04-10T20:39:27.204Z,3.75
2023-04-10T20:41:55.701Z,4.20
2023-04-10T20:44:25.584Z,8.40
2023-04-10T20:46:57.245Z,4.60
2023-04-10T20:49:27.873Z,3.35
2023-04-10T20:52:01.505Z,3.30
2023-04-10T20:54:32.493Z,3.08
2023-04-10T20:57:01.700Z,2.92
2023-04-10T20:59:31.476Z,2.88
2023-04-10T21:02:08.142Z,2.97
2023-04-10T21:04:37.053Z,3.33
2023-04-10T21:07:09.449Z,2.80
2023-04-10T21:09:38.755Z,3.22
2023-04-10T21:12:06.767Z,2.45
2023-04-10T21:14:35.840Z,3.17
2023-04-10T21:17:03.831Z,3.13
2023-04-10T21:19:31.606Z,3.15
2023-04-10T21:21:59.483Z,2.78
2023-04-10T21:24:29.668Z,2.83
2023-04-10T21:26:57.908Z,3.08
2023-04-10T21:29:26.404Z,2.67
2023-04-10T21:31:55.183Z,3.55
2023-04-10T21:34:25.277Z,3.92
2023-04-10T21:36:53.143Z,2.90
2023-04-10T21:39:22.676Z,3.30
2023-04-10T21:41:57.393Z,3.42
2023-04-10T21:44:26.036Z,2.15
2023-04-10T21:46:55.791Z,3.30
2023-04-10T21:49:23.562Z,2.95
2023-04-10T21:51:51.742Z,3.45
2023-04-10T21:54:20.097Z,2.70
2023-04-10T21:56:48.160Z,2.20
2023-04-10T21:59:18.197Z,1.95
2023-04-10T22:01:46.589Z,1.80
2023-04-10T22:04:17.973Z,2.65
2023-04-10T22:06:49.070Z,2.17
2023-04-10T22:09:25.641Z,2.33
2023-04-10T22:11:56.661Z,2.40
2023-04-10T22:14:26.783Z,2.97
2023-04-10T22:16:56.036Z,2.15
2023-04-10T22:19:25.797Z,2.03
2023-04-10T22:21:53.866Z,1.80
2023-04-10T22:24:22.315Z,2.10
2023-04-10T22:26:51.324Z,1.90
2023-04-10T22:29:19.842Z,1.75
2023-04-10T22:31:49.022Z,2.08
2023-04-10T22:34:17.927Z,2.75
2023-04-10T22:36:45.834Z,2.10
2023-04-10T22:39:13.604Z,2.10
2023-04-10T22:41:42.752Z,1.60
2023-04-10T22:44:10.876Z,2.00
2023-04-10T22:46:38.713Z,2.17
2023-04-10T22:49:17.026Z,2.42
2023-04-10T22:51:46.546Z,1.27
2023-04-10T22:54:15.823Z,1.65
2023-04-10T22:56:45.609Z,1.55
2023-04-10T22:59:13.359Z,2.15
2023-04-10T23:01:41.117Z,1.48
2023-04-10T23:04:08.850Z,2.00
2023-04-10T23:06:37.892Z,1.73
2023-04-10T23:09:05.889Z,1.85
2023-04-10T23:11:34.144Z,1.42
2023-04-10T23:14:01.874Z,2.13
2023-04-10T23:16:29.883Z,1.92
2023-04-10T23:18:58.174Z,1.40
2023-04-10T23:21:27.050Z,1.73
2023-04-10T23:23:56.412Z,1.80
2023-04-10T23:26:24.548Z,1.73
2023-04-10T23:28:52.429Z,2.40
2023-04-10T23:31:20.230Z,2.15
2023-04-10T23:33:48.089Z,1.80
2023-04-10T23:36:17.135Z,1.80
2023-04-10T23:38:44.877Z,2.10
2023-04-10T23:41:13.981Z,1.35
2023-04-10T23:43:41.685Z,1.73
2023-04-10T23:46:09.444Z,2.28
2023-04-10T23:48:37.288Z,1.50
2023-04-10T23:51:06.005Z,1.33
2023-04-10T23:53:34.358Z,1.40
2023-04-10T23:56:04.106Z,1.40
2023-04-10T23:58:33.215Z,1.80
